createdAt,value
2019-04-28T00:00:43.748Z,9.06
2019-04-28T00:03:10.831Z,9.10
2019-04-28T00:05:36.798Z,9.13
2019-04-28T00:08:02.840Z,9.05
2019-04-28T00:10:28.793Z,9.04
2019-04-28T00:12:54.794Z,9.00
2019-04-28T00:15:22.057Z,9.07
2019-04-28T00:17:48.181Z,9.09
2019-04-28T00:20:14.426Z,9.03
2019-04-28T00:22:41.893Z,9.01
2019-04-28T00:25:08.174Z,8.94
2019-04-28T00:27:34.175Z,9.00
2019-04-28T00:30:01.948Z,9.08
2019-04-28T00:32:28.416Z,9.01
2019-04-28T00:34:54.527Z,8.94
2019-04-28T00:37:21.110Z,8.82
2019-04-28T00:39:48.258Z,8.85
2019-04-28T00:42:14.224Z,8.85
2019-04-28T00:44:41.703Z,8.82
2019-04-28T00:47:08.244Z,8.89
2019-04-28T00:49:34.354Z,8.88
2019-04-28T00:52:00.711Z,8.89
2019-04-28T00:54:28.329Z,9.04
2019-04-28T00:56:54.362Z,8.97
2019-04-28T00:59:21.718Z,8.99
2019-04-28T01:01:47.726Z,8.91
2019-04-28T01:04:13.749Z,8.89
2019-04-28T01:06:39.786Z,8.81
2019-04-28T01:09:06.296Z,8.76
2019-04-28T01:11:34.612Z,8.85
2019-04-28T01:14:01.729Z,8.75
2019-04-28T01:16:27.924Z,8.77
2019-04-28T01:18:53.840Z,8.74
2019-04-28T01:21:20.327Z,8.81
2019-04-28T01:23:46.537Z,8.96
2019-04-28T01:26:13.567Z,8.88
2019-04-28T01:28:39.882Z,8.88
2019-04-28T01:31:07.045Z,8.84
2019-04-28T01:33:33.044Z,8.83
2019-04-28T01:36:00.490Z,8.86
2019-04-28T01:38:26.525Z,8.79
2019-04-28T01:40:52.543Z,8.72
2019-04-28T01:43:19.624Z,8.72
2019-04-28T01:45:45.861Z,8.76
2019-04-28T01:48:11.802Z,8.77
2019-04-28T01:50:37.839Z,8.74
2019-04-28T01:53:03.891Z,8.71
2019-04-28T01:55:29.789Z,8.69
2019-04-28T01:57:55.872Z,8.71
2019-04-28T02:00:25.488Z,8.74
2019-04-28T02:02:50.588Z,8.81
2019-04-28T02:05:16.664Z,8.74
2019-04-28T02:07:42.706Z,8.81
2019-04-28T02:10:10.257Z,8.71
2019-04-28T02:12:36.314Z,8.80
2019-04-28T02:15:04.846Z,8.82
2019-04-28T02:17:30.943Z,8.74
2019-04-28T02:19:56.934Z,8.70
2019-04-28T02:22:22.893Z,8.72
2019-04-28T02:24:50.492Z,8.61
2019-04-28T02:27:16.766Z,8.64
2019-04-28T02:29:42.766Z,8.64
2019-04-28T02:32:10.383Z,8.58
2019-04-28T02:34:36.530Z,8.66
2019-04-28T02:37:02.557Z,8.61
2019-04-28T02:39:31.099Z,8.61
2019-04-28T02:41:56.362Z,8.55
2019-04-28T02:44:23.615Z,8.54
2019-04-28T02:46:50.823Z,8.54
2019-04-28T02:49:20.216Z,8.53
2019-04-28T02:51:45.740Z,8.54
2019-04-28T02:54:12.007Z,8.54
2019-04-28T02:56:43.401Z,8.58
2019-04-28T02:59:06.110Z,8.54
2019-04-28T03:01:32.043Z,8.54
2019-04-28T03:04:00.149Z,8.51
2019-04-28T03:06:25.801Z,8.52
2019-04-28T03:08:51.790Z,8.57
2019-04-28T03:11:20.170Z,8.55
2019-04-28T03:13:45.544Z,8.56
2019-04-28T03:16:11.692Z,8.69
2019-04-28T03:18:37.674Z,8.60
2019-04-28T03:21:04.599Z,8.55
2019-04-28T03:23:31.248Z,8.59
2019-04-28T03:25:57.358Z,8.58
2019-04-28T03:28:23.324Z,8.63
2019-04-28T03:30:53.296Z,8.60
2019-04-28T03:33:19.205Z,8.55
2019-04-28T03:35:45.355Z,8.51
2019-04-28T03:38:11.251Z,8.49
2019-04-28T03:40:37.221Z,8.50
2019-04-28T03:43:03.620Z,8.54
2019-04-28T03:45:30.654Z,8.52
2019-04-28T03:47:56.810Z,8.48
2019-04-28T03:50:22.929Z,8.47
2019-04-28T03:52:51.148Z,8.45
2019-04-28T03:55:16.859Z,8.43
2019-04-28T03:57:42.824Z,8.42
2019-04-28T04:00:10.981Z,8.45
2019-04-28T04:02:36.918Z,8.37
2019-04-28T04:05:04.884Z,8.42
2019-04-28T04:07:31.307Z,8.41
2019-04-28T04:09:57.337Z,8.39
2019-04-28T04:12:23.278Z,8.35
2019-04-28T04:14:50.764Z,8.32
2019-04-28T04:17:17.932Z,8.35
2019-04-28T04:19:43.990Z,8.33
2019-04-28T04:22:10.230Z,8.34
2019-04-28T04:24:36.261Z,8.35
2019-04-28T04:27:02.262Z,8.34
2019-04-28T04:29:30.846Z,8.37
2019-04-28T04:32:09.968Z,8.44
2019-04-28T04:34:23.853Z,8.45
2019-04-28T04:36:50.846Z,8.47
2019-04-28T04:39:17.211Z,8.46
2019-04-28T04:41:43.969Z,8.45
2019-04-28T04:44:11.094Z,8.48
2019-04-28T04:46:37.426Z,8.51
2019-04-28T04:49:03.324Z,8.55
2019-04-28T04:51:30.608Z,8.76
2019-04-28T04:53:56.912Z,8.70
2019-04-28T04:56:22.859Z,8.64
2019-04-28T04:58:50.476Z,8.68
2019-04-28T05:01:16.833Z,8.75
2019-04-28T05:03:42.720Z,8.76
2019-04-28T05:06:10.103Z,8.81
2019-04-28T05:08:36.075Z,8.96
2019-04-28T05:11:01.988Z,8.92
2019-04-28T05:13:30.044Z,8.85
2019-04-28T05:15:56.065Z,8.87
2019-04-28T05:18:21.973Z,8.96
2019-04-28T05:20:47.908Z,9.00
2019-04-28T05:23:13.851Z,9.03
2019-04-28T05:25:39.785Z,9.16
2019-04-28T05:28:05.919Z,9.24
2019-04-28T05:30:34.762Z,9.21
2019-04-28T05:33:00.352Z,9.24
2019-04-28T05:35:26.368Z,9.22
2019-04-28T05:37:52.268Z,9.29
2019-04-28T05:40:20.459Z,9.30
2019-04-28T05:42:46.220Z,9.30
2019-04-28T05:45:12.211Z,9.35
2019-04-28T05:47:38.257Z,9.40
2019-04-28T05:50:04.658Z,9.50
2019-04-28T05:52:30.878Z,9.61
2019-04-28T05:54:56.904Z,9.64
2019-04-28T05:57:22.994Z,9.64
2019-04-28T05:59:50.554Z,9.75
2019-04-28T06:02:16.902Z,9.78
2019-04-28T06:04:42.808Z,9.78
2019-04-28T06:07:10.094Z,9.87
2019-04-28T06:09:36.305Z,9.94
2019-04-28T06:12:02.832Z,9.96
2019-04-28T06:14:30.050Z,9.91
2019-04-28T06:16:56.102Z,9.85
2019-04-28T06:19:22.003Z,9.90
2019-04-28T06:21:48.142Z,9.96
2019-04-28T06:24:14.059Z,10.06
2019-04-28T06:26:41.202Z,10.06
2019-04-28T06:29:07.129Z,10.07
2019-04-28T06:31:33.026Z,10.07
2019-04-28T06:33:58.988Z,10.12
2019-04-28T06:36:25.083Z,10.51
2019-04-28T06:38:50.993Z,10.67
2019-04-28T06:41:17.027Z,10.59
2019-04-28T06:43:42.936Z,10.69
2019-04-28T06:46:08.834Z,10.66
2019-04-28T06:48:34.767Z,10.67
2019-04-28T06:51:00.749Z,10.73
2019-04-28T06:53:26.860Z,10.65
2019-04-28T06:55:52.781Z,10.72
2019-04-28T06:58:21.862Z,10.93
2019-04-28T07:00:48.307Z,11.03
2019-04-28T07:03:22.993Z,11.07
2019-04-28T07:05:44.100Z,11.22
2019-04-28T07:08:10.019Z,11.10
2019-04-28T07:10:36.354Z,10.97
2019-04-28T07:13:02.264Z,10.87
2019-04-28T07:15:28.221Z,11.03
2019-04-28T07:17:54.156Z,11.29
2019-04-28T07:20:20.107Z,11.49
2019-04-28T07:22:46.434Z,11.43
2019-04-28T07:25:12.390Z,11.64
2019-04-28T07:27:38.470Z,11.83
2019-04-28T07:30:05.728Z,11.97
2019-04-28T07:32:31.655Z,11.97
2019-04-28T07:34:57.753Z,12.05
2019-04-28T07:37:23.658Z,12.08
2019-04-28T07:39:49.687Z,12.04
2019-04-28T07:42:15.622Z,11.87
2019-04-28T07:44:41.516Z,11.85
2019-04-28T07:47:07.501Z,12.12
2019-04-28T07:49:33.413Z,12.25
2019-04-28T07:51:59.495Z,12.27
2019-04-28T07:54:25.433Z,12.18
2019-04-28T07:56:51.418Z,12.11
2019-04-28T07:59:18.512Z,12.14
2019-04-28T08:01:44.588Z,12.15
2019-04-28T08:04:10.630Z,12.26
2019-04-28T08:06:36.562Z,12.34
2019-04-28T08:09:05.210Z,12.38
2019-04-28T08:11:33.136Z,12.31
2019-04-28T08:13:59.710Z,12.41
2019-04-28T08:16:25.619Z,12.35
2019-04-28T08:18:51.685Z,12.30
2019-04-28T08:21:17.642Z,12.56
2019-04-28T08:23:47.263Z,12.68
2019-04-28T08:26:11.441Z,12.55
2019-04-28T08:28:39.675Z,12.59
2019-04-28T08:31:05.589Z,12.60
2019-04-28T08:33:33.243Z,12.52
2019-04-28T08:35:59.421Z,12.50
2019-04-28T08:38:28.334Z,12.63
2019-04-28T08:40:55.170Z,12.67
2019-04-28T08:43:21.225Z,12.72
2019-04-28T08:45:47.147Z,12.83
2019-04-28T08:48:13.083Z,12.70
2019-04-28T08:50:39.191Z,12.92
2019-04-28T08:53:06.448Z,12.94
2019-04-28T08:55:32.523Z,13.04
2019-04-28T08:57:59.875Z,12.94
2019-04-28T09:00:25.893Z,13.12
2019-04-28T09:02:51.859Z,14.28
2019-04-28T09:05:18.095Z,14.28
2019-04-28T09:07:44.329Z,14.55
2019-04-28T09:10:11.377Z,14.38
2019-04-28T09:12:37.292Z,14.05
2019-04-28T09:15:05.401Z,14.88
2019-04-28T09:17:31.557Z,15.21
2019-04-28T09:19:57.611Z,15.28
2019-04-28T09:22:23.787Z,15.15
2019-04-28T09:24:49.774Z,14.91
2019-04-28T09:27:15.730Z,14.66
2019-04-28T09:29:42.007Z,14.62
2019-04-28T09:32:09.221Z,14.43
2019-04-28T09:34:35.281Z,14.40
2019-04-28T09:37:01.481Z,14.36
2019-04-28T09:39:27.735Z,14.61
2019-04-28T09:41:53.856Z,14.87
2019-04-28T09:44:19.982Z,15.18
2019-04-28T09:46:46.214Z,15.46
2019-04-28T09:49:12.160Z,15.35
2019-04-28T09:51:38.066Z,15.73
2019-04-28T09:54:04.227Z,15.71
2019-04-28T09:56:30.227Z,16.05
2019-04-28T09:58:56.426Z,16.31
2019-04-28T10:01:22.367Z,16.12
2019-04-28T10:03:48.420Z,16.56
2019-04-28T10:06:14.372Z,16.32
2019-04-28T10:08:40.377Z,16.37
2019-04-28T10:11:06.314Z,16.38
2019-04-28T10:13:32.305Z,16.44
2019-04-28T10:15:58.480Z,16.64
2019-04-28T10:18:24.561Z,16.68
2019-04-28T10:20:50.493Z,16.72
2019-04-28T10:23:16.393Z,16.73
2019-04-28T10:25:44.023Z,16.51
2019-04-28T10:28:10.233Z,16.61
2019-04-28T10:30:36.489Z,16.48
2019-04-28T10:33:02.490Z,16.61
2019-04-28T10:35:28.987Z,16.60
2019-04-28T10:37:55.023Z,16.37
2019-04-28T10:40:32.530Z,16.00
2019-04-28T10:42:58.435Z,15.76
2019-04-28T10:45:24.567Z,15.45
2019-04-28T10:47:50.598Z,15.19
2019-04-28T10:50:16.872Z,15.04
2019-04-28T10:52:42.805Z,15.25
2019-04-28T10:55:08.869Z,15.61
2019-04-28T10:57:34.892Z,15.59
2019-04-28T11:00:00.820Z,15.36
2019-04-28T11:02:26.895Z,15.33
2019-04-28T11:04:52.962Z,15.35
2019-04-28T11:07:19.064Z,15.39
2019-04-28T11:09:45.015Z,15.40
2019-04-28T11:12:10.930Z,15.29
2019-04-28T11:14:36.888Z,15.45
2019-04-28T11:17:02.953Z,15.43
2019-04-28T11:19:28.950Z,15.59
2019-04-28T11:21:54.970Z,15.63
2019-04-28T11:24:20.931Z,15.50
2019-04-28T11:26:46.891Z,15.63
2019-04-28T11:29:12.908Z,16.06
2019-04-28T11:31:39.933Z,16.20
2019-04-28T11:34:05.979Z,16.39
2019-04-28T11:36:33.265Z,16.11
2019-04-28T11:38:59.211Z,16.04
2019-04-28T11:41:25.215Z,15.93
2019-04-28T11:43:51.276Z,15.88
2019-04-28T11:46:17.204Z,15.87
2019-04-28T11:48:43.160Z,15.80
2019-04-28T11:51:09.098Z,15.85
2019-04-28T11:53:35.008Z,15.62
2019-04-28T11:56:01.176Z,15.60
2019-04-28T11:58:27.166Z,15.69
2019-04-28T12:00:53.202Z,15.89
2019-04-28T12:03:19.200Z,15.93
2019-04-28T12:05:45.132Z,16.05
2019-04-28T12:08:11.028Z,16.11
2019-04-28T12:10:40.287Z,15.96
2019-04-28T12:13:14.369Z,15.82
2019-04-28T12:15:42.301Z,15.88
2019-04-28T12:18:08.234Z,15.92
2019-04-28T12:20:34.190Z,15.96
2019-04-28T12:23:00.079Z,16.08
2019-04-28T12:25:26.025Z,15.90
2019-04-28T12:27:51.984Z,15.89
2019-04-28T12:30:18.185Z,16.03
2019-04-28T12:32:44.317Z,16.21
2019-04-28T12:35:10.561Z,16.33
2019-04-28T12:37:36.501Z,16.17
2019-04-28T12:40:04.502Z,16.16
2019-04-28T12:42:30.521Z,16.41
2019-04-28T12:44:56.638Z,16.69
2019-04-28T12:47:22.829Z,17.00
2019-04-28T12:49:48.859Z,17.22
2019-04-28T12:52:14.915Z,17.36
2019-04-28T12:54:40.842Z,17.30
2019-04-28T12:57:07.935Z,17.23
2019-04-28T12:59:33.947Z,17.06
2019-04-28T13:02:00.970Z,17.19
2019-04-28T13:04:27.219Z,17.36
2019-04-28T13:06:53.173Z,17.46
2019-04-28T13:09:19.062Z,17.27
2019-04-28T13:11:45.158Z,17.47
2019-04-28T13:14:11.055Z,17.60
2019-04-28T13:16:37.051Z,17.68
2019-04-28T13:19:03.306Z,17.62
2019-04-28T13:21:31.429Z,17.44
2019-04-28T13:24:05.356Z,17.43
2019-04-28T13:26:31.629Z,17.23
2019-04-28T13:28:57.532Z,17.39
2019-04-28T13:31:23.472Z,17.37
2019-04-28T13:33:56.133Z,17.58
2019-04-28T13:36:17.270Z,17.56
2019-04-28T13:38:43.343Z,17.79
2019-04-28T13:41:09.284Z,17.73
2019-04-28T13:43:35.299Z,17.50
2019-04-28T13:46:01.234Z,17.12
2019-04-28T13:48:27.286Z,17.14
2019-04-28T13:50:53.203Z,16.83
2019-04-28T13:53:19.129Z,16.87
2019-04-28T13:55:45.140Z,16.65
2019-04-28T13:58:11.189Z,16.62
2019-04-28T14:00:37.117Z,16.40
2019-04-28T14:03:03.314Z,16.32
2019-04-28T14:05:29.242Z,16.68
2019-04-28T14:07:55.233Z,16.71
2019-04-28T14:10:21.258Z,17.07
2019-04-28T14:12:47.313Z,16.88
2019-04-28T14:15:13.634Z,16.86
2019-04-28T14:17:39.971Z,17.04
2019-04-28T14:20:06.190Z,16.93
2019-04-28T14:22:32.222Z,16.70
2019-04-28T14:24:58.120Z,16.53
2019-04-28T14:27:24.091Z,16.57
2019-04-28T14:29:51.997Z,16.47
2019-04-28T14:32:18.004Z,16.95
2019-04-28T14:34:44.112Z,16.86
2019-04-28T14:37:09.976Z,16.69
2019-04-28T14:39:36.010Z,16.65
2019-04-28T14:42:02.038Z,16.66
2019-04-28T14:44:28.076Z,16.82
2019-04-28T14:46:54.139Z,16.69
2019-04-28T14:49:20.292Z,16.55
2019-04-28T14:51:46.219Z,16.55
2019-04-28T14:54:12.186Z,16.37
2019-04-28T14:56:38.248Z,16.00
2019-04-28T14:59:04.443Z,15.78
2019-04-28T15:01:30.424Z,15.77
2019-04-28T15:03:57.065Z,15.85
2019-04-28T15:06:22.963Z,16.03
2019-04-28T15:08:49.345Z,16.07
2019-04-28T15:11:15.246Z,15.90
2019-04-28T15:13:41.210Z,15.77
2019-04-28T15:16:07.198Z,15.85
2019-04-28T15:18:33.209Z,15.64
2019-04-28T15:20:59.270Z,15.63
2019-04-28T15:23:25.362Z,15.49
2019-04-28T15:25:51.396Z,15.70
2019-04-28T15:28:17.404Z,15.71
2019-04-28T15:30:43.485Z,15.60
2019-04-28T15:33:09.664Z,15.59
2019-04-28T15:35:35.611Z,15.60
2019-04-28T15:38:01.541Z,15.70
2019-04-28T15:40:27.504Z,15.75
2019-04-28T15:42:53.644Z,15.88
2019-04-28T15:45:19.681Z,15.94
2019-04-28T15:47:45.747Z,15.78
2019-04-28T15:50:12.003Z,15.85
2019-04-28T15:52:37.894Z,15.73
2019-04-28T15:55:05.180Z,15.60
2019-04-28T15:57:31.120Z,15.46
2019-04-28T15:59:57.241Z,15.35
2019-04-28T16:02:23.152Z,15.24
2019-04-28T16:04:49.094Z,15.16
2019-04-28T16:07:24.779Z,15.11
2019-04-28T16:09:43.063Z,15.07
2019-04-28T16:12:09.196Z,15.16
2019-04-28T16:14:37.252Z,15.17
2019-04-28T16:17:04.268Z,15.36
2019-04-28T16:19:30.211Z,15.55
2019-04-28T16:21:56.335Z,15.48
2019-04-28T16:24:22.229Z,15.80
2019-04-28T16:26:48.288Z,15.79
2019-04-28T16:29:14.219Z,15.89
2019-04-28T16:31:40.166Z,15.92
2019-04-28T16:34:06.113Z,16.18
2019-04-28T16:36:32.465Z,16.04
2019-04-28T16:38:58.534Z,15.95
2019-04-28T16:41:24.508Z,16.03
2019-04-28T16:43:52.109Z,15.87
2019-04-28T16:46:18.217Z,15.86
2019-04-28T16:48:44.136Z,15.69
2019-04-28T16:51:14.515Z,15.96
2019-04-28T16:53:39.579Z,15.71
2019-04-28T16:56:05.907Z,15.58
2019-04-28T16:58:32.228Z,15.42
2019-04-28T17:00:59.427Z,15.31
2019-04-28T17:03:25.410Z,15.20
2019-04-28T17:05:52.343Z,15.20
2019-04-28T17:08:18.401Z,15.34
2019-04-28T17:10:44.491Z,15.13
2019-04-28T17:13:10.511Z,15.01
2019-04-28T17:15:36.425Z,15.02
2019-04-28T17:18:02.768Z,14.98
2019-04-28T17:20:29.201Z,14.96
2019-04-28T17:22:55.423Z,14.89
2019-04-28T17:25:21.561Z,14.75
2019-04-28T17:27:47.657Z,14.59
2019-04-28T17:30:13.888Z,14.45
2019-04-28T17:32:41.145Z,14.40
2019-04-28T17:35:07.208Z,14.38
2019-04-28T17:37:33.198Z,14.21
2019-04-28T17:39:59.460Z,14.24
2019-04-28T17:42:25.552Z,14.11
2019-04-28T17:44:51.675Z,14.05
2019-04-28T17:47:17.718Z,13.91
2019-04-28T17:49:43.753Z,13.91
2019-04-28T17:52:09.795Z,13.76
2019-04-28T17:54:35.876Z,13.76
2019-04-28T17:57:02.037Z,13.60
2019-04-28T17:59:28.069Z,13.51
2019-04-28T18:01:54.255Z,13.21
2019-04-28T18:04:20.383Z,13.01
2019-04-28T18:06:46.508Z,12.97
2019-04-28T18:09:12.598Z,12.68
2019-04-28T18:11:40.076Z,12.47
2019-04-28T18:14:06.343Z,12.41
2019-04-28T18:16:32.328Z,12.10
2019-04-28T18:18:58.235Z,11.81
2019-04-28T18:21:24.676Z,11.60
2019-04-28T18:23:50.580Z,11.53
2019-04-28T18:26:16.591Z,11.55
2019-04-28T18:28:42.493Z,11.31
2019-04-28T18:31:11.640Z,11.21
2019-04-28T18:33:36.342Z,10.98
2019-04-28T18:36:02.645Z,10.95
2019-04-28T18:38:35.130Z,10.87
2019-04-28T18:40:56.607Z,10.88
2019-04-28T18:43:22.672Z,10.81
2019-04-28T18:45:48.884Z,10.78
2019-04-28T18:48:14.921Z,10.91
2019-04-28T18:50:40.808Z,10.91
2019-04-28T18:53:06.851Z,10.96
2019-04-28T18:55:32.786Z,10.97
2019-04-28T18:57:58.816Z,10.95
2019-04-28T19:00:24.932Z,10.94
2019-04-28T19:02:50.982Z,10.92
2019-04-28T19:05:17.006Z,10.90
2019-04-28T19:07:42.942Z,10.83
2019-04-28T19:10:09.123Z,10.75
2019-04-28T19:12:35.455Z,10.72
2019-04-28T19:15:01.437Z,10.69
2019-04-28T19:17:27.647Z,10.59
2019-04-28T19:19:53.551Z,10.47
2019-04-28T19:22:19.543Z,10.38
2019-04-28T19:24:45.571Z,10.38
2019-04-28T19:27:11.695Z,10.32
2019-04-28T19:29:37.591Z,10.28
2019-04-28T19:32:03.753Z,10.24
2019-04-28T19:34:29.752Z,10.25
2019-04-28T19:36:56.092Z,10.13
2019-04-28T19:39:22.009Z,10.04
2019-04-28T19:41:48.032Z,10.05
2019-04-28T19:44:14.068Z,9.93
2019-04-28T19:46:40.246Z,9.83
2019-04-28T19:49:06.228Z,9.76
2019-04-28T19:51:32.378Z,9.74
2019-04-28T19:53:59.674Z,9.64
2019-04-28T19:56:26.627Z,8.82
2019-04-28T19:58:52.596Z,9.45
2019-04-28T20:01:18.578Z,9.44
2019-04-28T20:03:45.042Z,9.37
2019-04-28T20:06:10.995Z,9.33
2019-04-28T20:08:37.031Z,9.38
2019-04-28T20:11:03.151Z,9.30
2019-04-28T20:13:31.441Z,9.33
2019-04-28T20:15:57.450Z,9.30
2019-04-28T20:18:23.710Z,9.35
2019-04-28T20:20:49.820Z,9.35
2019-04-28T20:23:15.773Z,9.31
2019-04-28T20:25:41.684Z,9.23
2019-04-28T20:28:07.727Z,9.18
2019-04-28T20:30:33.900Z,9.09
2019-04-28T20:33:06.952Z,9.02
2019-04-28T20:35:28.008Z,8.97
2019-04-28T20:37:54.235Z,8.89
2019-04-28T20:40:20.283Z,8.81
2019-04-28T20:42:46.375Z,8.63
2019-04-28T20:45:12.404Z,8.56
2019-04-28T20:47:38.535Z,8.54
2019-04-28T20:50:04.772Z,8.44
2019-04-28T20:52:30.895Z,8.45
2019-04-28T20:54:56.988Z,8.48
2019-04-28T20:57:22.897Z,8.51
2019-04-28T20:59:48.825Z,8.44
2019-04-28T21:02:14.756Z,8.25
2019-04-28T21:04:40.720Z,8.28
2019-04-28T21:07:06.620Z,8.20
2019-04-28T21:09:32.715Z,8.16
2019-04-28T21:11:58.619Z,8.12
2019-04-28T21:14:25.643Z,8.06
2019-04-28T21:16:51.676Z,8.10
2019-04-28T21:19:17.747Z,8.09
2019-04-28T21:21:43.699Z,8.07
2019-04-28T21:24:09.595Z,8.04
2019-04-28T21:26:35.612Z,7.96
2019-04-28T21:29:01.599Z,7.89
2019-04-28T21:31:27.580Z,7.85
2019-04-28T21:33:53.539Z,7.76
2019-04-28T21:36:19.603Z,7.77
2019-04-28T21:38:45.531Z,7.70
2019-04-28T21:41:11.671Z,7.68
2019-04-28T21:43:37.665Z,7.58
2019-04-28T21:46:03.651Z,7.64
2019-04-28T21:48:29.726Z,7.69
2019-04-28T21:50:55.670Z,7.63
2019-04-28T21:53:21.629Z,7.56
2019-04-28T21:55:47.574Z,7.38
2019-04-28T21:58:13.524Z,7.16
2019-04-28T22:00:44.807Z,7.11
2019-04-28T22:03:27.600Z,7.22
2019-04-28T22:05:53.544Z,7.32
2019-04-28T22:08:20.446Z,7.02
2019-04-28T22:10:46.549Z,6.82
2019-04-28T22:13:12.453Z,6.93
2019-04-28T22:15:38.390Z,6.96
2019-04-28T22:18:04.544Z,6.81
2019-04-28T22:20:30.467Z,6.71
2019-04-28T22:22:57.566Z,6.66
2019-04-28T22:25:23.459Z,6.64
2019-04-28T22:27:49.390Z,6.64
2019-04-28T22:30:15.580Z,6.78
2019-04-28T22:32:41.544Z,6.90
2019-04-28T22:35:07.748Z,6.97
2019-04-28T22:37:33.696Z,6.90
2019-04-28T22:39:59.825Z,6.92
2019-04-28T22:42:25.963Z,6.83
2019-04-28T22:44:52.111Z,6.68
2019-04-28T22:47:18.120Z,6.71
2019-04-28T22:49:44.180Z,6.74
2019-04-28T22:52:11.164Z,6.61
2019-04-28T22:54:37.266Z,6.61
2019-04-28T22:57:03.179Z,6.61
2019-04-28T22:59:29.249Z,6.64
2019-04-28T23:01:55.248Z,6.64
2019-04-28T23:04:21.295Z,6.36
2019-04-28T23:06:47.663Z,6.18
2019-04-28T23:09:14.033Z,6.27
2019-04-28T23:11:40.346Z,6.37
2019-04-28T23:14:06.417Z,6.36
2019-04-28T23:16:32.535Z,6.45
2019-04-28T23:18:58.770Z,6.44
2019-04-28T23:21:24.783Z,6.43
2019-04-28T23:23:50.859Z,6.47
2019-04-28T23:26:16.815Z,6.52
2019-04-28T23:28:43.843Z,6.48
2019-04-28T23:31:09.747Z,6.49
2019-04-28T23:33:35.732Z,6.28
2019-04-28T23:36:01.746Z,6.19
2019-04-28T23:38:27.849Z,6.21
2019-04-28T23:40:53.890Z,6.17
2019-04-28T23:43:19.968Z,6.18
2019-04-28T23:45:45.916Z,5.83
2019-04-28T23:48:11.815Z,5.79
2019-04-28T23:50:37.708Z,5.90
2019-04-28T23:53:04.905Z,5.89
2019-04-28T23:55:30.846Z,5.97
2019-04-28T23:57:56.882Z,6.06
